Weather at Cutter-Carr Airport / Del Norte Airport [CLOSED]

Public forecast

Using degrees Fahrenheit for public forecast. Weather courtesy of forecast.io.

Closest aviation weather report (METAR) to Cutter-Carr Airport / Del Norte Airport

Closest report is Albuquerque International Sunport, 4.7 nm (8.7 km) S.

2024/07/20 05:52 (retrieved 12 minutes ago)

KABQ 200552Z 18009KT 10SM BKN120 BKN150 24/13 A3027 RMK AO2 SLP158 CB DSNT SE 60000 T02440133 10339 20244 53018

Closest aviation forecast (TAF) to Cutter-Carr Airport / Del Norte Airport

Closest forecast is Albuquerque International Sunport, 4.7 nm (8.7 km) S.

2024/07/20 06:45 Correction (retrieved 0 seconds ago)

TAF COR KABQ 200542Z 2006/2106 VRB06KT P6SM BKN110 TEMPO 2006/2008 -SHRA BKN090 FM201800 17007KT P6SM SCT100 FM202300 08020G30KT P6SM VCSH BKN090 PROB30 2100/2104 VRB20G35KT 6SM -TSRA OVC070CB